sensor_id;sensor_type;location;lat;lon;timestamp;P1;durP1;ratioP1;P2;durP2;ratioP2
15816;SDS011;8009;50.070;8.232;2023-04-09T00:01:10;11.20;;;10.80;;
15816;SDS011;8009;50.070;8.232;2023-04-09T00:03:38;10.60;;;10.20;;
15816;SDS011;8009;50.070;8.232;2023-04-09T00:06:07;10.20;;;9.80;;
15816;SDS011;8009;50.070;8.232;2023-04-09T00:08:35;11.17;;;10.77;;
15816;SDS011;8009;50.070;8.232;2023-04-09T00:11:03;11.83;;;11.43;;
15816;SDS011;8009;50.070;8.232;2023-04-09T00:13:32;10.93;;;10.53;;
15816;SDS011;8009;50.070;8.232;2023-04-09T00:16:01;12.10;;;11.70;;
15816;SDS011;8009;50.070;8.232;2023-04-09T00:21:02;11.43;;;11.03;;
15816;SDS011;8009;50.070;8.232;2023-04-09T00:23:32;12.27;;;11.87;;
15816;SDS011;8009;50.070;8.232;2023-04-09T00:26:01;12.97;;;12.47;;
15816;SDS011;8009;50.070;8.232;2023-04-09T00:28:29;11.67;;;11.27;;
15816;SDS011;8009;50.070;8.232;2023-04-09T00:30:57;10.37;;;9.97;;
15816;SDS011;8009;50.070;8.232;2023-04-09T00:33:26;13.23;;;12.73;;
15816;SDS011;8009;50.070;8.232;2023-04-09T00:35:59;9.97;;;9.60;;
15816;SDS011;8009;50.070;8.232;2023-04-09T00:38:27;12.53;;;12.07;;
15816;SDS011;8009;50.070;8.232;2023-04-09T00:40:55;11.77;;;11.37;;
15816;SDS011;8009;50.070;8.232;2023-04-09T00:43:24;12.20;;;11.80;;
15816;SDS011;8009;50.070;8.232;2023-04-09T00:45:53;11.73;;;11.33;;
15816;SDS011;8009;50.070;8.232;2023-04-09T00:48:22;12.63;;;12.17;;
15816;SDS011;8009;50.070;8.232;2023-04-09T00:50:50;11.90;;;11.50;;
15816;SDS011;8009;50.070;8.232;2023-04-09T00:53:22;10.27;;;9.87;;
15816;SDS011;8009;50.070;8.232;2023-04-09T00:55:51;11.90;;;11.50;;
15816;SDS011;8009;50.070;8.232;2023-04-09T00:58:20;11.47;;;11.07;;
15816;SDS011;8009;50.070;8.232;2023-04-09T01:00:48;11.57;;;11.17;;
15816;SDS011;8009;50.070;8.232;2023-04-09T01:03:17;10.90;;;10.50;;
15816;SDS011;8009;50.070;8.232;2023-04-09T01:05:47;15.50;;;14.90;;
15816;SDS011;8009;50.070;8.232;2023-04-09T01:08:26;13.70;;;13.20;;
15816;SDS011;8009;50.070;8.232;2023-04-09T01:11:01;12.67;;;12.17;;
15816;SDS011;8009;50.070;8.232;2023-04-09T01:13:38;11.50;;;11.10;;
15816;SDS011;8009;50.070;8.232;2023-04-09T01:16:16;11.13;;;10.73;;
15816;SDS011;8009;50.070;8.232;2023-04-09T01:18:49;11.60;;;11.20;;
15816;SDS011;8009;50.070;8.232;2023-04-09T01:21:24;13.07;;;12.57;;
15816;SDS011;8009;50.070;8.232;2023-04-09T01:24:18;13.03;;;12.53;;
15816;SDS011;8009;50.070;8.232;2023-04-09T01:27:01;15.77;;;15.18;;
15816;SDS011;8009;50.070;8.232;2023-04-09T01:29:34;15.07;;;14.47;;
15816;SDS011;8009;50.070;8.232;2023-04-09T01:32:06;12.33;;;11.90;;
15816;SDS011;8009;50.070;8.232;2023-04-09T01:34:36;14.13;;;13.63;;
15816;SDS011;8009;50.070;8.232;2023-04-09T01:37:04;11.50;;;11.10;;
15816;SDS011;8009;50.070;8.232;2023-04-09T01:39:35;11.90;;;11.50;;
15816;SDS011;8009;50.070;8.232;2023-04-09T01:42:04;13.10;;;12.60;;
15816;SDS011;8009;50.070;8.232;2023-04-09T01:44:38;12.07;;;11.67;;
15816;SDS011;8009;50.070;8.232;2023-04-09T01:47:07;12.70;;;12.20;;
15816;SDS011;8009;50.070;8.232;2023-04-09T01:49:36;13.27;;;12.77;;
15816;SDS011;8009;50.070;8.232;2023-04-09T01:52:06;13.30;;;12.80;;
15816;SDS011;8009;50.070;8.232;2023-04-09T01:54:38;13.83;;;13.33;;
15816;SDS011;8009;50.070;8.232;2023-04-09T01:57:07;12.57;;;12.07;;
15816;SDS011;8009;50.070;8.232;2023-04-09T01:59:38;11.87;;;11.47;;
15816;SDS011;8009;50.070;8.232;2023-04-09T02:02:07;11.00;;;10.60;;
15816;SDS011;8009;50.070;8.232;2023-04-09T02:04:39;11.67;;;11.27;;
15816;SDS011;8009;50.070;8.232;2023-04-09T02:07:11;11.60;;;11.20;;
15816;SDS011;8009;50.070;8.232;2023-04-09T02:09:45;10.77;;;10.37;;
15816;SDS011;8009;50.070;8.232;2023-04-09T02:12:16;13.00;;;12.50;;
15816;SDS011;8009;50.070;8.232;2023-04-09T02:14:49;11.13;;;10.73;;
15816;SDS011;8009;50.070;8.232;2023-04-09T02:17:18;10.67;;;10.27;;
15816;SDS011;8009;50.070;8.232;2023-04-09T02:19:47;11.57;;;11.17;;
15816;SDS011;8009;50.070;8.232;2023-04-09T02:22:15;11.40;;;11.00;;
15816;SDS011;8009;50.070;8.232;2023-04-09T02:24:45;12.30;;;11.83;;
15816;SDS011;8009;50.070;8.232;2023-04-09T02:27:13;11.75;;;11.35;;
15816;SDS011;8009;50.070;8.232;2023-04-09T02:29:42;10.67;;;10.27;;
15816;SDS011;8009;50.070;8.232;2023-04-09T02:32:13;11.67;;;11.23;;
15816;SDS011;8009;50.070;8.232;2023-04-09T02:34:41;10.63;;;10.23;;
15816;SDS011;8009;50.070;8.232;2023-04-09T02:37:09;11.50;;;11.10;;
15816;SDS011;8009;50.070;8.232;2023-04-09T02:39:38;11.17;;;10.77;;
15816;SDS011;8009;50.070;8.232;2023-04-09T02:42:06;11.70;;;11.30;;
15816;SDS011;8009;50.070;8.232;2023-04-09T02:44:34;11.67;;;11.27;;
15816;SDS011;8009;50.070;8.232;2023-04-09T02:47:03;11.70;;;11.30;;
15816;SDS011;8009;50.070;8.232;2023-04-09T02:49:34;11.77;;;11.37;;
15816;SDS011;8009;50.070;8.232;2023-04-09T02:52:02;11.33;;;10.93;;
15816;SDS011;8009;50.070;8.232;2023-04-09T02:54:30;11.27;;;10.87;;
15816;SDS011;8009;50.070;8.232;2023-04-09T02:56:59;12.50;;;12.00;;
15816;SDS011;8009;50.070;8.232;2023-04-09T02:59:27;11.40;;;11.00;;
15816;SDS011;8009;50.070;8.232;2023-04-09T03:01:57;11.93;;;11.53;;
15816;SDS011;8009;50.070;8.232;2023-04-09T03:04:25;11.60;;;11.20;;
15816;SDS011;8009;50.070;8.232;2023-04-09T03:06:56;11.53;;;11.13;;
15816;SDS011;8009;50.070;8.232;2023-04-09T03:09:24;11.63;;;11.23;;
15816;SDS011;8009;50.070;8.232;2023-04-09T03:11:53;11.47;;;11.07;;
15816;SDS011;8009;50.070;8.232;2023-04-09T03:14:21;11.17;;;10.77;;
15816;SDS011;8009;50.070;8.232;2023-04-09T03:16:49;11.20;;;10.80;;
15816;SDS011;8009;50.070;8.232;2023-04-09T03:19:18;11.73;;;11.33;;
15816;SDS011;8009;50.070;8.232;2023-04-09T03:21:46;12.23;;;11.73;;
15816;SDS011;8009;50.070;8.232;2023-04-09T03:24:18;11.23;;;10.83;;
15816;SDS011;8009;50.070;8.232;2023-04-09T03:26:46;11.37;;;10.97;;
15816;SDS011;8009;50.070;8.232;2023-04-09T03:29:14;11.10;;;10.70;;
15816;SDS011;8009;50.070;8.232;2023-04-09T03:31:42;12.07;;;11.67;;
15816;SDS011;8009;50.070;8.232;2023-04-09T03:34:11;12.93;;;12.43;;
15816;SDS011;8009;50.070;8.232;2023-04-09T03:36:39;10.80;;;10.40;;
15816;SDS011;8009;50.070;8.232;2023-04-09T03:39:08;11.27;;;10.87;;
15816;SDS011;8009;50.070;8.232;2023-04-09T03:41:38;11.90;;;11.50;;
15816;SDS011;8009;50.070;8.232;2023-04-09T03:44:07;11.60;;;11.20;;
15816;SDS011;8009;50.070;8.232;2023-04-09T03:46:35;11.70;;;11.30;;
15816;SDS011;8009;50.070;8.232;2023-04-09T03:49:03;12.10;;;11.70;;
15816;SDS011;8009;50.070;8.232;2023-04-09T03:51:32;12.03;;;11.63;;
15816;SDS011;8009;50.070;8.232;2023-04-09T03:54:00;12.20;;;11.70;;
15816;SDS011;8009;50.070;8.232;2023-04-09T03:56:28;12.00;;;11.60;;
15816;SDS011;8009;50.070;8.232;2023-04-09T03:58:59;11.93;;;11.53;;
15816;SDS011;8009;50.070;8.232;2023-04-09T04:01:28;12.87;;;12.37;;
15816;SDS011;8009;50.070;8.232;2023-04-09T04:03:56;12.10;;;11.70;;
15816;SDS011;8009;50.070;8.232;2023-04-09T04:06:24;12.30;;;11.90;;
15816;SDS011;8009;50.070;8.232;2023-04-09T04:08:55;11.57;;;11.17;;
15816;SDS011;8009;50.070;8.232;2023-04-09T04:11:23;13.73;;;13.23;;
15816;SDS011;8009;50.070;8.232;2023-04-09T04:13:52;11.83;;;11.43;;
15816;SDS011;8009;50.070;8.232;2023-04-09T04:16:22;12.13;;;11.73;;
15816;SDS011;8009;50.070;8.232;2023-04-09T04:18:51;12.20;;;11.77;;
15816;SDS011;8009;50.070;8.232;2023-04-09T04:21:19;11.27;;;10.87;;
15816;SDS011;8009;50.070;8.232;2023-04-09T04:23:48;11.80;;;11.40;;
15816;SDS011;8009;50.070;8.232;2023-04-09T04:26:16;12.33;;;11.83;;
15816;SDS011;8009;50.070;8.232;2023-04-09T04:28:44;12.33;;;11.87;;
15816;SDS011;8009;50.070;8.232;2023-04-09T04:31:12;12.57;;;12.07;;
15816;SDS011;8009;50.070;8.232;2023-04-09T04:33:43;10.53;;;10.13;;
15816;SDS011;8009;50.070;8.232;2023-04-09T04:36:12;11.33;;;10.93;;
15816;SDS011;8009;50.070;8.232;2023-04-09T04:38:41;13.20;;;12.70;;
15816;SDS011;8009;50.070;8.232;2023-04-09T04:41:09;12.63;;;12.13;;
15816;SDS011;8009;50.070;8.232;2023-04-09T04:43:38;12.70;;;12.20;;
15816;SDS011;8009;50.070;8.232;2023-04-09T04:46:07;12.17;;;11.77;;
15816;SDS011;8009;50.070;8.232;2023-04-09T04:48:36;12.80;;;12.30;;
15816;SDS011;8009;50.070;8.232;2023-04-09T04:51:07;12.60;;;12.10;;
15816;SDS011;8009;50.070;8.232;2023-04-09T04:53:35;12.50;;;12.00;;
15816;SDS011;8009;50.070;8.232;2023-04-09T04:56:04;12.80;;;12.30;;
15816;SDS011;8009;50.070;8.232;2023-04-09T04:58:32;12.73;;;12.23;;
15816;SDS011;8009;50.070;8.232;2023-04-09T05:01:00;12.50;;;12.00;;
15816;SDS011;8009;50.070;8.232;2023-04-09T05:03:29;13.00;;;12.50;;
15816;SDS011;8009;50.070;8.232;2023-04-09T05:05:57;12.90;;;12.40;;
15816;SDS011;8009;50.070;8.232;2023-04-09T05:08:28;12.80;;;12.30;;
15816;SDS011;8009;50.070;8.232;2023-04-09T05:10:56;12.60;;;12.10;;
15816;SDS011;8009;50.070;8.232;2023-04-09T05:13:25;13.00;;;12.50;;
15816;SDS011;8009;50.070;8.232;2023-04-09T05:15:53;13.00;;;12.50;;
15816;SDS011;8009;50.070;8.232;2023-04-09T05:18:21;12.20;;;11.80;;
15816;SDS011;8009;50.070;8.232;2023-04-09T05:20:50;12.80;;;12.30;;
15816;SDS011;8009;50.070;8.232;2023-04-09T05:23:18;12.60;;;12.10;;
15816;SDS011;8009;50.070;8.232;2023-04-09T05:25:49;12.70;;;12.20;;
15816;SDS011;8009;50.070;8.232;2023-04-09T05:28:18;12.70;;;12.20;;
15816;SDS011;8009;50.070;8.232;2023-04-09T05:30:46;12.67;;;12.17;;
15816;SDS011;8009;50.070;8.232;2023-04-09T05:33:14;12.47;;;12.00;;
15816;SDS011;8009;50.070;8.232;2023-04-09T05:35:43;12.77;;;12.27;;
15816;SDS011;8009;50.070;8.232;2023-04-09T05:38:11;13.17;;;12.67;;
15816;SDS011;8009;50.070;8.232;2023-04-09T05:40:40;12.67;;;12.17;;
15816;SDS011;8009;50.070;8.232;2023-04-09T05:43:12;12.90;;;12.40;;
15816;SDS011;8009;50.070;8.232;2023-04-09T05:45:40;13.57;;;13.07;;
15816;SDS011;8009;50.070;8.232;2023-04-09T05:48:09;12.30;;;11.87;;
15816;SDS011;8009;50.070;8.232;2023-04-09T05:50:37;13.20;;;12.70;;
15816;SDS011;8009;50.070;8.232;2023-04-09T05:53:05;12.93;;;12.43;;
15816;SDS011;8009;50.070;8.232;2023-04-09T05:55:34;13.40;;;12.90;;
15816;SDS011;8009;50.070;8.232;2023-04-09T05:58:02;12.30;;;11.87;;
15816;SDS011;8009;50.070;8.232;2023-04-09T06:00:33;12.77;;;12.27;;
15816;SDS011;8009;50.070;8.232;2023-04-09T06:03:01;12.50;;;12.00;;
15816;SDS011;8009;50.070;8.232;2023-04-09T06:05:30;12.43;;;11.97;;
15816;SDS011;8009;50.070;8.232;2023-04-09T06:07:58;12.53;;;12.03;;
15816;SDS011;8009;50.070;8.232;2023-04-09T06:10:27;13.23;;;12.73;;
15816;SDS011;8009;50.070;8.232;2023-04-09T06:12:55;12.33;;;11.87;;
15816;SDS011;8009;50.070;8.232;2023-04-09T06:15:23;12.80;;;12.30;;
15816;SDS011;8009;50.070;8.232;2023-04-09T06:17:54;12.63;;;12.13;;
15816;SDS011;8009;50.070;8.232;2023-04-09T06:20:22;13.20;;;12.70;;
15816;SDS011;8009;50.070;8.232;2023-04-09T06:22:51;12.40;;;11.90;;
15816;SDS011;8009;50.070;8.232;2023-04-09T06:25:19;12.90;;;12.40;;
15816;SDS011;8009;50.070;8.232;2023-04-09T06:27:47;12.23;;;11.80;;
15816;SDS011;8009;50.070;8.232;2023-04-09T06:30:19;13.00;;;12.50;;
15816;SDS011;8009;50.070;8.232;2023-04-09T06:32:47;11.67;;;11.17;;
15816;SDS011;8009;50.070;8.232;2023-04-09T06:35:18;12.07;;;11.67;;
15816;SDS011;8009;50.070;8.232;2023-04-09T06:37:47;10.87;;;10.47;;
15816;SDS011;8009;50.070;8.232;2023-04-09T06:40:15;11.23;;;10.83;;
15816;SDS011;8009;50.070;8.232;2023-04-09T06:42:44;12.13;;;11.73;;
15816;SDS011;8009;50.070;8.232;2023-04-09T06:45:12;11.20;;;10.80;;
15816;SDS011;8009;50.070;8.232;2023-04-09T06:47:40;12.57;;;12.07;;
15816;SDS011;8009;50.070;8.232;2023-04-09T06:50:09;11.33;;;10.93;;
15816;SDS011;8009;50.070;8.232;2023-04-09T06:52:40;11.30;;;10.90;;
15816;SDS011;8009;50.070;8.232;2023-04-09T06:55:09;11.73;;;11.32;;
15816;SDS011;8009;50.070;8.232;2023-04-09T06:57:38;10.83;;;10.43;;
15816;SDS011;8009;50.070;8.232;2023-04-09T07:00:07;11.73;;;11.33;;
15816;SDS011;8009;50.070;8.232;2023-04-09T07:02:36;12.40;;;11.90;;
15816;SDS011;8009;50.070;8.232;2023-04-09T07:05:05;11.80;;;11.40;;
15816;SDS011;8009;50.070;8.232;2023-04-09T07:07:33;12.53;;;12.03;;
15816;SDS011;8009;50.070;8.232;2023-04-09T07:10:05;11.37;;;10.97;;
15816;SDS011;8009;50.070;8.232;2023-04-09T07:12:34;10.93;;;10.53;;
15816;SDS011;8009;50.070;8.232;2023-04-09T07:15:03;11.00;;;10.60;;
15816;SDS011;8009;50.070;8.232;2023-04-09T07:17:33;11.97;;;11.57;;
15816;SDS011;8009;50.070;8.232;2023-04-09T07:20:02;12.13;;;11.70;;
15816;SDS011;8009;50.070;8.232;2023-04-09T07:22:30;12.17;;;11.73;;
15816;SDS011;8009;50.070;8.232;2023-04-09T07:24:58;11.37;;;10.97;;
15816;SDS011;8009;50.070;8.232;2023-04-09T07:27:29;10.90;;;10.50;;
15816;SDS011;8009;50.070;8.232;2023-04-09T07:29:58;11.07;;;10.67;;
15816;SDS011;8009;50.070;8.232;2023-04-09T07:32:27;11.93;;;11.53;;
15816;SDS011;8009;50.070;8.232;2023-04-09T07:34:56;11.30;;;10.90;;
15816;SDS011;8009;50.070;8.232;2023-04-09T07:37:26;10.97;;;10.57;;
15816;SDS011;8009;50.070;8.232;2023-04-09T07:39:55;11.93;;;11.53;;
15816;SDS011;8009;50.070;8.232;2023-04-09T07:42:25;11.30;;;10.90;;
15816;SDS011;8009;50.070;8.232;2023-04-09T07:44:56;10.77;;;10.37;;
15816;SDS011;8009;50.070;8.232;2023-04-09T07:47:25;12.07;;;11.63;;
15816;SDS011;8009;50.070;8.232;2023-04-09T07:49:53;11.33;;;10.93;;
15816;SDS011;8009;50.070;8.232;2023-04-09T07:52:21;11.97;;;11.57;;
15816;SDS011;8009;50.070;8.232;2023-04-09T07:54:50;13.95;;;13.45;;
15816;SDS011;8009;50.070;8.232;2023-04-09T07:57:18;11.30;;;10.90;;
15816;SDS011;8009;50.070;8.232;2023-04-09T07:59:46;13.00;;;12.50;;
15816;SDS011;8009;50.070;8.232;2023-04-09T08:02:17;11.37;;;10.97;;
15816;SDS011;8009;50.070;8.232;2023-04-09T08:04:49;10.93;;;10.53;;
15816;SDS011;8009;50.070;8.232;2023-04-09T08:07:17;12.63;;;12.13;;
15816;SDS011;8009;50.070;8.232;2023-04-09T08:09:45;11.97;;;11.57;;
15816;SDS011;8009;50.070;8.232;2023-04-09T08:12:14;12.47;;;11.97;;
15816;SDS011;8009;50.070;8.232;2023-04-09T08:14:42;11.63;;;11.23;;
15816;SDS011;8009;50.070;8.232;2023-04-09T08:17:10;13.40;;;12.90;;
15816;SDS011;8009;50.070;8.232;2023-04-09T08:19:41;11.13;;;10.73;;
15816;SDS011;8009;50.070;8.232;2023-04-09T08:22:09;11.93;;;11.53;;
15816;SDS011;8009;50.070;8.232;2023-04-09T08:24:38;12.40;;;11.93;;
15816;SDS011;8009;50.070;8.232;2023-04-09T08:27:07;13.63;;;13.13;;
15816;SDS011;8009;50.070;8.232;2023-04-09T08:29:36;12.17;;;11.77;;
15816;SDS011;8009;50.070;8.232;2023-04-09T08:32:04;11.67;;;11.27;;
15816;SDS011;8009;50.070;8.232;2023-04-09T08:34:32;11.63;;;11.23;;
15816;SDS011;8009;50.070;8.232;2023-04-09T08:37:04;12.97;;;12.47;;
15816;SDS011;8009;50.070;8.232;2023-04-09T08:39:32;11.70;;;11.30;;
15816;SDS011;8009;50.070;8.232;2023-04-09T08:42:00;11.13;;;10.73;;
15816;SDS011;8009;50.070;8.232;2023-04-09T08:44:31;11.93;;;11.53;;
15816;SDS011;8009;50.070;8.232;2023-04-09T08:47:00;12.33;;;11.90;;
15816;SDS011;8009;50.070;8.232;2023-04-09T08:49:28;11.67;;;11.27;;
15816;SDS011;8009;50.070;8.232;2023-04-09T08:51:56;12.00;;;11.60;;
15816;SDS011;8009;50.070;8.232;2023-04-09T08:54:27;13.33;;;12.83;;
15816;SDS011;8009;50.070;8.232;2023-04-09T08:56:56;14.27;;;13.70;;
15816;SDS011;8009;50.070;8.232;2023-04-09T08:59:24;12.33;;;11.87;;
15816;SDS011;8009;50.070;8.232;2023-04-09T09:02:05;12.17;;;11.77;;
15816;SDS011;8009;50.070;8.232;2023-04-09T09:04:42;13.60;;;13.10;;
15816;SDS011;8009;50.070;8.232;2023-04-09T09:07:12;12.80;;;12.30;;
15816;SDS011;8009;50.070;8.232;2023-04-09T09:09:53;14.67;;;14.13;;
15816;SDS011;8009;50.070;8.232;2023-04-09T09:12:32;13.57;;;13.07;;
15816;SDS011;8009;50.070;8.232;2023-04-09T09:15:02;13.93;;;13.43;;
15816;SDS011;8009;50.070;8.232;2023-04-09T09:17:33;11.23;;;10.83;;
15816;SDS011;8009;50.070;8.232;2023-04-09T09:20:20;12.10;;;11.70;;
15816;SDS011;8009;50.070;8.232;2023-04-09T09:22:50;16.60;;;16.00;;
15816;SDS011;8009;50.070;8.232;2023-04-09T09:25:22;15.00;;;14.43;;
15816;SDS011;8009;50.070;8.232;2023-04-09T09:27:51;14.07;;;13.57;;
15816;SDS011;8009;50.070;8.232;2023-04-09T09:30:20;14.43;;;13.93;;
15816;SDS011;8009;50.070;8.232;2023-04-09T09:32:51;14.07;;;13.47;;
15816;SDS011;8009;50.070;8.232;2023-04-09T09:35:20;13.00;;;12.50;;
15816;SDS011;8009;50.070;8.232;2023-04-09T09:37:59;14.07;;;13.47;;
15816;SDS011;8009;50.070;8.232;2023-04-09T09:40:32;15.13;;;14.53;;
15816;SDS011;8009;50.070;8.232;2023-04-09T09:43:01;13.43;;;12.93;;
15816;SDS011;8009;50.070;8.232;2023-04-09T09:45:29;14.47;;;13.97;;
15816;SDS011;8009;50.070;8.232;2023-04-09T09:48:00;15.73;;;15.17;;
15816;SDS011;8009;50.070;8.232;2023-04-09T09:50:29;15.20;;;14.60;;
15816;SDS011;8009;50.070;8.232;2023-04-09T09:53:00;19.57;;;18.80;;
15816;SDS011;8009;50.070;8.232;2023-04-09T09:55:33;20.87;;;20.07;;
15816;SDS011;8009;50.070;8.232;2023-04-09T09:58:07;18.97;;;18.27;;
15816;SDS011;8009;50.070;8.232;2023-04-09T10:00:40;21.93;;;21.10;;
15816;SDS011;8009;50.070;8.232;2023-04-09T10:03:13;19.70;;;19.00;;
15816;SDS011;8009;50.070;8.232;2023-04-09T10:05:42;20.67;;;19.87;;
15816;SDS011;8009;50.070;8.232;2023-04-09T10:08:12;19.20;;;18.50;;
15816;SDS011;8009;50.070;8.232;2023-04-09T10:10:43;20.13;;;19.37;;
15816;SDS011;8009;50.070;8.232;2023-04-09T10:13:14;21.83;;;21.03;;
15816;SDS011;8009;50.070;8.232;2023-04-09T10:15:47;22.27;;;21.43;;
15816;SDS011;8009;50.070;8.232;2023-04-09T10:18:16;20.27;;;19.47;;
15816;SDS011;8009;50.070;8.232;2023-04-09T10:20:46;26.47;;;25.47;;
15816;SDS011;8009;50.070;8.232;2023-04-09T10:23:20;19.13;;;18.43;;
15816;SDS011;8009;50.070;8.232;2023-04-09T10:26:03;18.17;;;17.47;;
15816;SDS011;8009;50.070;8.232;2023-04-09T10:28:32;19.83;;;19.03;;
15816;SDS011;8009;50.070;8.232;2023-04-09T10:31:00;18.20;;;17.50;;
15816;SDS011;8009;50.070;8.232;2023-04-09T10:33:31;19.60;;;18.90;;
15816;SDS011;8009;50.070;8.232;2023-04-09T10:36:00;22.70;;;21.80;;
15816;SDS011;8009;50.070;8.232;2023-04-09T10:38:37;23.77;;;22.83;;
15816;SDS011;8009;50.070;8.232;2023-04-09T10:41:15;17.70;;;17.00;;
15816;SDS011;8009;50.070;8.232;2023-04-09T10:43:56;18.53;;;17.83;;
15816;SDS011;8009;50.070;8.232;2023-04-09T10:46:25;20.50;;;19.70;;
15816;SDS011;8009;50.070;8.232;2023-04-09T10:49:08;17.27;;;16.63;;
15816;SDS011;8009;50.070;8.232;2023-04-09T10:51:47;20.57;;;19.77;;
15816;SDS011;8009;50.070;8.232;2023-04-09T10:57:12;22.07;;;21.27;;
15816;SDS011;8009;50.070;8.232;2023-04-09T10:59:43;19.70;;;18.90;;
15816;SDS011;8009;50.070;8.232;2023-04-09T11:02:20;17.10;;;16.50;;
15816;SDS011;8009;50.070;8.232;2023-04-09T11:05:04;17.27;;;16.63;;
15816;SDS011;8009;50.070;8.232;2023-04-09T11:07:43;16.70;;;16.10;;
15816;SDS011;8009;50.070;8.232;2023-04-09T11:10:14;17.33;;;16.67;;
15816;SDS011;8009;50.070;8.232;2023-04-09T11:12:45;19.07;;;18.37;;
15816;SDS011;8009;50.070;8.232;2023-04-09T11:15:16;17.50;;;16.83;;
15816;SDS011;8009;50.070;8.232;2023-04-09T11:17:45;20.33;;;19.53;;
15816;SDS011;8009;50.070;8.232;2023-04-09T11:20:15;17.80;;;17.10;;
15816;SDS011;8009;50.070;8.232;2023-04-09T11:22:46;19.07;;;18.37;;
15816;SDS011;8009;50.070;8.232;2023-04-09T11:25:18;16.53;;;15.93;;
15816;SDS011;8009;50.070;8.232;2023-04-09T11:27:50;18.53;;;17.83;;
15816;SDS011;8009;50.070;8.232;2023-04-09T11:30:18;17.90;;;17.20;;
15816;SDS011;8009;50.070;8.232;2023-04-09T11:32:47;21.03;;;20.23;;
15816;SDS011;8009;50.070;8.232;2023-04-09T11:35:16;19.17;;;18.47;;
15816;SDS011;8009;50.070;8.232;2023-04-09T11:37:45;21.63;;;20.83;;
15816;SDS011;8009;50.070;8.232;2023-04-09T11:40:16;16.63;;;16.03;;
15816;SDS011;8009;50.070;8.232;2023-04-09T11:42:50;18.37;;;17.67;;
15816;SDS011;8009;50.070;8.232;2023-04-09T11:45:19;16.37;;;15.77;;
15816;SDS011;8009;50.070;8.232;2023-04-09T11:47:52;20.13;;;19.33;;
15816;SDS011;8009;50.070;8.232;2023-04-09T11:50:21;21.17;;;20.37;;
15816;SDS011;8009;50.070;8.232;2023-04-09T11:52:49;15.93;;;15.33;;
15816;SDS011;8009;50.070;8.232;2023-04-09T11:55:21;18.33;;;17.63;;
15816;SDS011;8009;50.070;8.232;2023-04-09T11:57:55;15.53;;;14.93;;
15816;SDS011;8009;50.070;8.232;2023-04-09T12:00:26;16.30;;;15.70;;
15816;SDS011;8009;50.070;8.232;2023-04-09T12:02:58;44.17;;;42.42;;
15816;SDS011;8009;50.070;8.232;2023-04-09T12:05:29;31.70;;;30.50;;
15816;SDS011;8009;50.070;8.232;2023-04-09T12:07:59;33.10;;;31.80;;
15816;SDS011;8009;50.070;8.232;2023-04-09T12:10:29;31.50;;;30.30;;
15816;SDS011;8009;50.070;8.232;2023-04-09T12:13:05;28.23;;;27.13;;
15816;SDS011;8009;50.070;8.232;2023-04-09T12:15:35;28.43;;;27.33;;
15816;SDS011;8009;50.070;8.232;2023-04-09T12:18:06;29.47;;;28.37;;
15816;SDS011;8009;50.070;8.232;2023-04-09T12:20:36;25.40;;;24.40;;
15816;SDS011;8009;50.070;8.232;2023-04-09T12:23:05;19.10;;;18.40;;
15816;SDS011;8009;50.070;8.232;2023-04-09T12:25:35;17.03;;;16.43;;
15816;SDS011;8009;50.070;8.232;2023-04-09T12:28:09;16.20;;;15.60;;
15816;SDS011;8009;50.070;8.232;2023-04-09T12:30:39;18.33;;;17.63;;
15816;SDS011;8009;50.070;8.232;2023-04-09T12:33:08;17.77;;;17.07;;
15816;SDS011;8009;50.070;8.232;2023-04-09T12:35:36;15.87;;;15.27;;
15816;SDS011;8009;50.070;8.232;2023-04-09T12:38:05;17.07;;;16.47;;
15816;SDS011;8009;50.070;8.232;2023-04-09T12:40:33;14.17;;;13.67;;
15816;SDS011;8009;50.070;8.232;2023-04-09T12:43:02;14.37;;;13.87;;
15816;SDS011;8009;50.070;8.232;2023-04-09T12:45:33;16.17;;;15.57;;
15816;SDS011;8009;50.070;8.232;2023-04-09T12:48:02;17.70;;;17.00;;
15816;SDS011;8009;50.070;8.232;2023-04-09T12:50:30;20.37;;;19.57;;
15816;SDS011;8009;50.070;8.232;2023-04-09T12:52:58;24.37;;;23.47;;
15816;SDS011;8009;50.070;8.232;2023-04-09T12:55:27;19.57;;;18.87;;
15816;SDS011;8009;50.070;8.232;2023-04-09T12:57:55;22.17;;;21.37;;
15816;SDS011;8009;50.070;8.232;2023-04-09T13:00:23;25.10;;;24.13;;
15816;SDS011;8009;50.070;8.232;2023-04-09T13:02:57;23.40;;;22.50;;
15816;SDS011;8009;50.070;8.232;2023-04-09T13:05:25;22.23;;;21.43;;
15816;SDS011;8009;50.070;8.232;2023-04-09T13:07:55;20.37;;;19.57;;
15816;SDS011;8009;50.070;8.232;2023-04-09T13:10:24;22.00;;;21.20;;
15816;SDS011;8009;50.070;8.232;2023-04-09T13:12:52;19.23;;;18.53;;
15816;SDS011;8009;50.070;8.232;2023-04-09T13:15:20;20.07;;;19.30;;
15816;SDS011;8009;50.070;8.232;2023-04-09T13:17:49;22.33;;;21.50;;
15816;SDS011;8009;50.070;8.232;2023-04-09T13:20:20;23.40;;;22.50;;
15816;SDS011;8009;50.070;8.232;2023-04-09T13:22:48;23.73;;;22.83;;
15816;SDS011;8009;50.070;8.232;2023-04-09T13:25:16;23.03;;;22.13;;
15816;SDS011;8009;50.070;8.232;2023-04-09T13:27:45;24.10;;;23.20;;
15816;SDS011;8009;50.070;8.232;2023-04-09T13:30:13;23.73;;;22.83;;
15816;SDS011;8009;50.070;8.232;2023-04-09T13:32:59;22.40;;;21.57;;
15816;SDS011;8009;50.070;8.232;2023-04-09T13:35:27;20.30;;;19.50;;
15816;SDS011;8009;50.070;8.232;2023-04-09T13:37:56;23.10;;;22.20;;
15816;SDS011;8009;50.070;8.232;2023-04-09T13:40:25;24.50;;;23.57;;
15816;SDS011;8009;50.070;8.232;2023-04-09T13:42:55;23.87;;;22.97;;
15816;SDS011;8009;50.070;8.232;2023-04-09T13:45:23;22.47;;;21.60;;
15816;SDS011;8009;50.070;8.232;2023-04-09T13:47:52;22.23;;;21.40;;
15816;SDS011;8009;50.070;8.232;2023-04-09T13:50:22;22.67;;;21.80;;
15816;SDS011;8009;50.070;8.232;2023-04-09T13:52:51;22.03;;;21.23;;
15816;SDS011;8009;50.070;8.232;2023-04-09T13:55:19;25.70;;;24.70;;
15816;SDS011;8009;50.070;8.232;2023-04-09T13:57:48;25.23;;;24.23;;
15816;SDS011;8009;50.070;8.232;2023-04-09T14:00:16;26.17;;;25.17;;
15816;SDS011;8009;50.070;8.232;2023-04-09T14:02:44;22.37;;;21.53;;
15816;SDS011;8009;50.070;8.232;2023-04-09T14:05:13;23.73;;;22.83;;
15816;SDS011;8009;50.070;8.232;2023-04-09T14:07:44;21.27;;;20.47;;
15816;SDS011;8009;50.070;8.232;2023-04-09T14:10:12;23.40;;;22.50;;
15816;SDS011;8009;50.070;8.232;2023-04-09T14:12:43;17.90;;;17.20;;
15816;SDS011;8009;50.070;8.232;2023-04-09T14:15:11;17.23;;;16.60;;
15816;SDS011;8009;50.070;8.232;2023-04-09T14:17:39;20.43;;;19.63;;
15816;SDS011;8009;50.070;8.232;2023-04-09T14:20:09;20.50;;;19.70;;
15816;SDS011;8009;50.070;8.232;2023-04-09T14:22:38;18.23;;;17.53;;
15816;SDS011;8009;50.070;8.232;2023-04-09T14:25:09;19.13;;;18.43;;
15816;SDS011;8009;50.070;8.232;2023-04-09T14:27:38;20.97;;;20.17;;
15816;SDS011;8009;50.070;8.232;2023-04-09T14:30:07;25.67;;;24.70;;
15816;SDS011;8009;50.070;8.232;2023-04-09T14:32:36;21.90;;;21.07;;
15816;SDS011;8009;50.070;8.232;2023-04-09T14:35:05;25.07;;;24.10;;
15816;SDS011;8009;50.070;8.232;2023-04-09T14:37:33;22.87;;;21.97;;
15816;SDS011;8009;50.070;8.232;2023-04-09T14:40:05;21.53;;;20.73;;
15816;SDS011;8009;50.070;8.232;2023-04-09T14:42:37;21.27;;;20.47;;
15816;SDS011;8009;50.070;8.232;2023-04-09T14:45:06;19.33;;;18.63;;
15816;SDS011;8009;50.070;8.232;2023-04-09T14:47:35;20.17;;;19.37;;
15816;SDS011;8009;50.070;8.232;2023-04-09T14:50:04;24.10;;;23.20;;
15816;SDS011;8009;50.070;8.232;2023-04-09T14:52:34;19.40;;;18.70;;
15816;SDS011;8009;50.070;8.232;2023-04-09T14:55:02;18.23;;;17.53;;
15816;SDS011;8009;50.070;8.232;2023-04-09T14:57:38;17.97;;;17.27;;